createdAt,value
2023-05-23T00:00:41.557Z,97966.38
2023-05-23T00:02:44.799Z,97968.38
2023-05-23T00:04:49.439Z,97966.06
2023-05-23T00:06:53.505Z,97965.19
2023-05-23T00:08:57.616Z,97968.84
2023-05-23T00:11:00.682Z,97974.63
2023-05-23T00:13:03.853Z,97974.06
2023-05-23T00:15:09.917Z,97969.59
2023-05-23T00:17:13.183Z,97969.56
2023-05-23T00:19:17.241Z,97968.22
2023-05-23T00:21:21.898Z,97982.41
2023-05-23T00:23:25.359Z,97980.59
2023-05-23T00:25:34.364Z,97974.81
2023-05-23T00:27:37.504Z,97976.41
2023-05-23T00:29:40.633Z,97978.69
2023-05-23T00:31:46.388Z,97968.28
2023-05-23T00:33:50.620Z,97978.03
2023-05-23T00:35:53.867Z,97975.06
2023-05-23T00:37:58.282Z,97987.44
2023-05-23T00:40:01.434Z,97985.63
2023-05-23T00:42:06.452Z,97983.16
2023-05-23T00:44:11.190Z,97982.09
2023-05-23T00:46:14.410Z,97975.63
2023-05-23T00:48:17.502Z,97977.75
2023-05-23T00:50:20.907Z,97980.69
2023-05-23T00:52:23.978Z,97979.22
2023-05-23T00:54:31.504Z,97982.16
2023-05-23T00:56:34.789Z,97975.53
2023-05-23T00:58:37.860Z,97978.97
2023-05-23T01:00:41.105Z,97983.28
2023-05-23T01:02:46.260Z,97989.94
2023-05-23T01:04:54.225Z,97989.94
2023-05-23T01:06:57.918Z,97994.38
2023-05-23T01:09:02.971Z,98001.16
2023-05-23T01:11:13.216Z,97997.72
2023-05-23T01:13:23.325Z,98002.13
2023-05-23T01:15:30.512Z,98013.00
2023-05-23T01:17:37.645Z,98004.28
2023-05-23T01:19:53.325Z,98000.34
2023-05-23T01:21:57.098Z,98009.91
2023-05-23T01:24:24.348Z,98009.25
2023-05-23T01:26:48.255Z,98010.22
2023-05-23T01:28:56.916Z,98010.06
2023-05-23T01:31:03.030Z,98007.13
2023-05-23T01:33:06.294Z,98015.88
2023-05-23T01:35:10.028Z,98003.34
2023-05-23T01:37:14.732Z,98005.97
2023-05-23T01:39:17.894Z,98001.16
2023-05-23T01:41:21.273Z,98006.91
2023-05-23T01:43:25.907Z,98003.44
2023-05-23T01:45:30.901Z,97998.00
2023-05-23T01:47:34.404Z,98018.84
2023-05-23T01:49:38.658Z,98015.81
2023-05-23T01:51:42.284Z,98013.84
2023-05-23T01:53:45.458Z,98014.69
2023-05-23T01:55:49.339Z,98016.50
2023-05-23T01:57:53.376Z,98008.56
2023-05-23T01:59:56.604Z,98016.34
2023-05-23T02:02:01.255Z,98018.53
2023-05-23T02:04:05.012Z,98010.44
2023-05-23T02:06:08.215Z,98011.28
2023-05-23T02:08:11.315Z,98012.59
2023-05-23T02:10:14.637Z,98018.41
2023-05-23T02:12:17.717Z,98020.75
2023-05-23T02:14:21.061Z,98020.28
2023-05-23T02:16:26.193Z,98018.31
2023-05-23T02:18:30.782Z,98019.84
2023-05-23T02:20:34.047Z,98023.13
2023-05-23T02:22:37.149Z,98028.25
2023-05-23T02:24:40.340Z,98028.78
2023-05-23T02:26:43.419Z,98025.16
2023-05-23T02:28:46.651Z,98033.75
2023-05-23T02:30:51.835Z,98032.78
2023-05-23T02:32:55.123Z,98031.66
2023-05-23T02:34:59.741Z,98035.94
2023-05-23T02:37:02.908Z,98045.38
2023-05-23T02:39:06.631Z,98042.56
2023-05-23T02:41:09.926Z,98043.38
2023-05-23T02:43:13.311Z,98037.94
2023-05-23T02:45:16.348Z,98040.28
2023-05-23T02:47:19.448Z,98039.31
2023-05-23T02:49:22.586Z,98045.25
2023-05-23T02:51:28.615Z,98050.53
2023-05-23T02:53:31.881Z,98052.22
2023-05-23T02:55:35.135Z,98051.34
2023-05-23T02:57:38.184Z,98050.53
2023-05-23T02:59:41.271Z,98052.53
2023-05-23T03:01:44.413Z,98051.50
2023-05-23T03:03:47.569Z,98047.91
2023-05-23T03:05:51.582Z,98053.03
2023-05-23T03:07:56.075Z,98051.34
2023-05-23T03:09:59.661Z,98053.19
2023-05-23T03:12:02.715Z,98048.56
2023-05-23T03:14:06.501Z,98050.38
2023-05-23T03:16:09.629Z,98057.66
2023-05-23T03:18:12.707Z,98058.47
2023-05-23T03:20:15.749Z,98053.34
2023-05-23T03:22:18.808Z,98054.16
2023-05-23T03:24:23.256Z,98056.66
2023-05-23T03:26:26.306Z,98061.78
2023-05-23T03:28:29.347Z,98061.63
2023-05-23T03:30:32.512Z,98060.50
2023-05-23T03:32:36.012Z,98065.78
2023-05-23T03:34:39.061Z,98062.31
2023-05-23T03:36:42.110Z,98067.44
2023-05-23T03:38:45.454Z,98070.75
2023-05-23T03:40:50.069Z,98070.44
2023-05-23T03:43:02.951Z,98078.22
2023-05-23T03:45:07.513Z,98070.13
2023-05-23T03:47:10.886Z,98070.94
2023-05-23T03:49:16.671Z,98070.13
2023-05-23T03:51:19.759Z,98070.94
2023-05-23T03:53:22.917Z,98069.16
2023-05-23T03:55:26.047Z,98061.06
2023-05-23T03:57:30.867Z,98068.84
2023-05-23T03:59:34.059Z,98064.38
2023-05-23T04:01:41.352Z,98069.50
2023-05-23T04:03:45.019Z,98071.00
2023-05-23T04:05:48.517Z,98069.06
2023-05-23T04:07:52.559Z,98073.22
2023-05-23T04:09:55.866Z,98078.50
2023-05-23T04:11:59.205Z,98082.78
2023-05-23T04:14:05.071Z,98085.28
2023-05-23T04:16:08.424Z,98081.66
2023-05-23T04:18:11.529Z,98087.78
2023-05-23T04:20:14.781Z,98089.44
2023-05-23T04:22:18.168Z,98085.97
2023-05-23T04:24:23.259Z,98092.91
2023-05-23T04:26:26.435Z,98087.47
2023-05-23T04:28:30.180Z,98095.38
2023-05-23T04:30:34.657Z,98095.06
2023-05-23T04:32:38.305Z,98087.97
2023-05-23T04:34:42.136Z,98088.81
2023-05-23T04:36:45.702Z,98093.09
2023-05-23T04:38:49.366Z,98092.94
2023-05-23T04:40:53.254Z,98092.78
2023-05-23T04:43:21.950Z,98104.06
2023-05-23T04:45:28.602Z,98098.75
2023-05-23T04:47:56.563Z,98097.44
2023-05-23T04:50:18.634Z,98100.63
2023-05-23T04:52:21.991Z,98098.63
2023-05-23T04:54:25.175Z,98105.59
2023-05-23T04:56:29.777Z,98104.44
2023-05-23T04:58:33.656Z,98103.28
2023-05-23T05:00:40.979Z,98109.94
2023-05-23T05:02:44.736Z,98112.28
2023-05-23T05:04:49.318Z,98113.44
2023-05-23T05:06:52.610Z,98114.25
2023-05-23T05:08:55.975Z,98108.97
2023-05-23T05:10:59.145Z,98114.78
2023-05-23T05:13:02.360Z,98110.81
2023-05-23T05:15:18.416Z,98115.28
2023-05-23T05:17:25.153Z,98117.78
2023-05-23T05:19:40.309Z,98117.47
2023-05-23T05:21:44.789Z,98120.75
2023-05-23T05:23:47.886Z,98124.09
2023-05-23T05:25:53.221Z,98120.59
2023-05-23T05:27:56.934Z,98118.97
2023-05-23T05:30:04.925Z,98114.50
2023-05-23T05:32:10.317Z,98121.63
2023-05-23T05:34:13.736Z,98120.59
2023-05-23T05:36:16.931Z,98124.75
2023-05-23T05:38:22.968Z,98125.94
2023-05-23T05:40:26.176Z,98120.84
2023-05-23T05:42:29.346Z,98129.47
2023-05-23T05:44:32.475Z,98133.81
2023-05-23T05:46:35.902Z,98123.25
2023-05-23T05:48:39.353Z,98133.53
2023-05-23T05:50:45.665Z,98131.88
2023-05-23T05:52:49.323Z,98126.91
2023-05-23T05:54:53.788Z,98126.06
2023-05-23T05:56:56.993Z,98139.16
2023-05-23T05:59:00.806Z,98132.84
2023-05-23T06:01:05.745Z,98134.50
2023-05-23T06:03:08.996Z,98134.50
2023-05-23T06:05:18.980Z,98132.84
2023-05-23T06:07:22.796Z,98133.84
2023-05-23T06:09:25.993Z,98135.50
2023-05-23T06:11:30.460Z,98142.78
2023-05-23T06:13:34.128Z,98139.31
2023-05-23T06:15:37.263Z,98143.75
2023-05-23T06:17:40.643Z,98131.53
2023-05-23T06:19:44.237Z,98137.31
2023-05-23T06:21:47.520Z,98138.34
2023-05-23T06:23:52.394Z,98132.25
2023-05-23T06:25:55.456Z,98141.16
2023-05-23T06:28:00.760Z,98144.69
2023-05-23T06:30:04.332Z,98152.31
2023-05-23T06:32:08.157Z,98156.13
2023-05-23T06:34:11.432Z,98162.56
2023-05-23T06:36:15.660Z,98155.47
2023-05-23T06:38:18.783Z,98161.75
2023-05-23T06:40:21.912Z,98173.00
2023-05-23T06:42:26.469Z,98163.41
2023-05-23T06:44:41.767Z,98170.03
2023-05-23T06:46:47.710Z,98169.72
2023-05-23T06:49:02.693Z,98166.03
2023-05-23T06:51:11.654Z,98162.41
2023-05-23T06:53:18.843Z,98165.88
2023-05-23T06:55:23.789Z,98172.34
2023-05-23T06:57:26.886Z,98170.84
2023-05-23T06:59:30.032Z,98176.00
2023-05-23T07:01:34.502Z,98175.34
2023-05-23T07:03:38.397Z,98170.53
2023-05-23T07:05:43.372Z,98173.50
2023-05-23T07:07:47.289Z,98167.38
2023-05-23T07:09:51.062Z,98178.16
2023-05-23T07:11:55.889Z,98180.81
2023-05-23T07:14:00.553Z,98180.81
2023-05-23T07:16:12.478Z,98180.81
2023-05-23T07:18:27.861Z,98181.94
2023-05-23T07:20:34.340Z,98190.59
2023-05-23T07:22:46.281Z,98190.59
2023-05-23T07:24:49.631Z,98192.06
2023-05-23T07:26:53.314Z,98185.41
2023-05-23T07:28:56.433Z,98188.91
2023-05-23T07:30:59.612Z,98189.06
2023-05-23T07:33:03.262Z,98186.25
2023-05-23T07:35:08.801Z,98189.91
2023-05-23T07:37:11.938Z,98187.94
2023-05-23T07:39:22.195Z,98190.28
2023-05-23T07:41:26.946Z,98192.63
2023-05-23T07:43:30.061Z,98191.63
2023-05-23T07:45:33.285Z,98187.00
2023-05-23T07:47:37.157Z,98192.59
2023-05-23T07:49:40.428Z,98199.91
2023-05-23T07:51:44.922Z,98195.09
2023-05-23T07:53:48.335Z,98200.69
2023-05-23T07:55:51.596Z,98203.69
2023-05-23T07:57:56.539Z,98198.50
2023-05-23T08:00:01.102Z,98205.00
2023-05-23T08:02:06.391Z,98219.75
2023-05-23T08:04:09.573Z,98210.75
2023-05-23T08:06:20.654Z,98201.72
2023-05-23T08:08:25.477Z,98205.00
2023-05-23T08:10:29.951Z,98199.34
2023-05-23T08:12:40.214Z,98209.47
2023-05-23T08:14:52.208Z,98207.63
2023-05-23T08:17:19.189Z,98218.38
2023-05-23T08:19:23.043Z,98216.66
2023-05-23T08:21:26.945Z,98222.22
2023-05-23T08:23:31.750Z,98214.59
2023-05-23T08:25:34.969Z,98212.25
2023-05-23T08:27:38.577Z,98212.66
2023-05-23T08:29:52.720Z,98210.41
2023-05-23T08:31:56.477Z,98217.78
2023-05-23T08:34:00.616Z,98219.13
2023-05-23T08:36:05.612Z,98220.97
2023-05-23T08:38:09.251Z,98221.13
2023-05-23T08:40:20.118Z,98215.69
2023-05-23T08:42:30.547Z,98216.19
2023-05-23T08:44:34.151Z,98214.34
2023-05-23T08:46:42.442Z,98215.50
2023-05-23T08:48:52.224Z,98224.09
2023-05-23T08:50:56.092Z,98215.34
2023-05-23T08:53:01.272Z,98214.84
2023-05-23T08:55:06.255Z,98214.50
2023-05-23T08:57:11.565Z,98227.13
2023-05-23T08:59:18.985Z,98223.16
2023-05-23T09:01:23.618Z,98227.28
2023-05-23T09:03:30.173Z,98226.78
2023-05-23T09:05:43.660Z,98226.94
2023-05-23T09:07:48.131Z,98221.31
2023-05-23T09:09:51.989Z,98225.44
2023-05-23T09:11:56.651Z,98235.53
2023-05-23T09:14:01.242Z,98238.03
2023-05-23T09:16:06.277Z,98238.97
2023-05-23T09:18:15.665Z,98238.09
2023-05-23T09:20:19.324Z,98236.41
2023-05-23T09:22:29.746Z,98231.78
2023-05-23T09:24:41.549Z,98233.91
2023-05-23T09:26:48.004Z,98240.91
2023-05-23T09:28:51.613Z,98241.25
2023-05-23T09:31:00.931Z,98235.50
2023-05-23T09:33:05.896Z,98241.03
2023-05-23T09:35:12.479Z,98241.34
2023-05-23T09:37:19.040Z,98240.50
2023-05-23T09:39:22.285Z,98242.53
2023-05-23T09:41:26.681Z,98244.34
2023-05-23T09:43:30.194Z,98246.84
2023-05-23T09:45:34.358Z,98255.47
2023-05-23T09:47:39.979Z,98244.34
2023-05-23T09:49:44.782Z,98248.97
2023-05-23T09:51:58.578Z,98247.66
2023-05-23T09:54:01.745Z,98257.28
2023-05-23T09:56:05.331Z,98255.22
2023-05-23T09:58:09.330Z,98250.06
2023-05-23T10:00:14.156Z,98256.50
2023-05-23T10:02:19.595Z,98249.31
2023-05-23T10:04:24.474Z,98265.06
2023-05-23T10:06:31.034Z,98262.41
2023-05-23T10:08:38.128Z,98258.59
2023-05-23T10:11:32.383Z,98251.25
2023-05-23T10:13:35.905Z,98256.91
2023-05-23T10:15:41.029Z,98255.03
2023-05-23T10:17:54.977Z,98245.84
2023-05-23T10:20:02.567Z,98250.97
2023-05-23T10:22:08.313Z,98254.84
2023-05-23T10:24:12.893Z,98260.97
2023-05-23T10:26:16.908Z,98262.47
2023-05-23T10:28:20.947Z,98261.72
2023-05-23T10:30:24.209Z,98261.09
2023-05-23T10:32:27.635Z,98264.59
2023-05-23T10:34:35.688Z,98264.31
2023-05-23T10:36:46.138Z,98262.63
2023-05-23T10:38:53.262Z,98265.78
2023-05-23T10:41:02.688Z,98270.69
2023-05-23T10:43:11.836Z,98271.41
2023-05-23T10:45:19.345Z,98264.22
2023-05-23T10:47:29.565Z,98261.31
2023-05-23T10:49:40.086Z,98262.81
2023-05-23T10:51:45.706Z,98270.22
2023-05-23T10:53:54.987Z,98270.69
2023-05-23T10:55:58.788Z,98276.44
2023-05-23T10:58:12.565Z,98269.75
2023-05-23T11:00:17.314Z,98269.00
2023-05-23T11:02:23.874Z,98267.56
2023-05-23T11:04:28.033Z,98274.50
2023-05-23T11:06:34.084Z,98268.66
2023-05-23T11:08:48.879Z,98276.19
2023-05-23T11:10:56.724Z,98281.25
2023-05-23T11:13:07.899Z,98282.66
2023-05-23T11:15:24.024Z,98276.28
2023-05-23T11:17:34.170Z,98264.72
2023-05-23T11:19:37.495Z,98267.78
2023-05-23T11:21:41.281Z,98274.84
2023-05-23T11:23:45.964Z,98264.19
2023-05-23T11:25:51.510Z,98265.00
2023-05-23T11:27:55.303Z,98259.97
2023-05-23T11:30:04.306Z,98268.47
2023-05-23T11:32:16.882Z,98267.03
2023-05-23T11:34:21.778Z,98263.69
2023-05-23T11:36:25.113Z,98267.22
2023-05-23T11:38:28.592Z,98268.84
2023-05-23T11:40:34.551Z,98268.84
2023-05-23T11:42:43.134Z,98266.09
2023-05-23T11:44:50.357Z,98264.53
2023-05-23T11:47:04.007Z,98259.94
2023-05-23T11:49:12.137Z,98260.97
2023-05-23T11:51:16.293Z,98260.69
2023-05-23T11:53:21.613Z,98256.53
2023-05-23T11:55:25.085Z,98264.06
2023-05-23T11:57:29.896Z,98260.13
2023-05-23T11:59:33.174Z,98260.72
2023-05-23T12:01:38.448Z,98251.94
2023-05-23T12:03:51.040Z,98255.44
2023-05-23T12:05:55.992Z,98249.56
2023-05-23T12:08:02.293Z,98252.19
2023-05-23T12:10:06.744Z,98255.31
2023-05-23T12:12:10.094Z,98253.16
2023-05-23T12:14:17.695Z,98250.41
2023-05-23T12:16:22.394Z,98251.84
2023-05-23T12:18:26.970Z,98245.66
2023-05-23T12:20:35.276Z,98237.56
2023-05-23T12:22:38.716Z,98237.84
2023-05-23T12:24:47.134Z,98244.31
2023-05-23T12:26:51.767Z,98242.19
2023-05-23T12:28:55.115Z,98246.16
2023-05-23T12:31:13.525Z,98242.97
2023-05-23T12:33:16.959Z,98241.31
2023-05-23T12:35:20.176Z,98250.97
2023-05-23T12:37:24.545Z,98243.50
2023-05-23T12:39:29.320Z,98236.88
2023-05-23T12:41:33.913Z,98241.56
2023-05-23T12:43:39.752Z,98238.81
2023-05-23T12:45:43.526Z,98242.19
2023-05-23T12:47:48.358Z,98234.41
2023-05-23T12:49:51.557Z,98242.59
2023-05-23T12:51:54.779Z,98246.56
2023-05-23T12:53:58.439Z,98244.88
2023-05-23T12:56:02.706Z,98235.28
2023-05-23T12:58:06.140Z,98238.84
2023-05-23T13:00:10.951Z,98230.44
2023-05-23T13:02:14.285Z,98226.69
2023-05-23T13:04:19.353Z,98232.38
2023-05-23T13:06:22.775Z,98226.56
2023-05-23T13:08:25.988Z,98220.53
2023-05-23T13:10:31.824Z,98215.47
2023-05-23T13:12:35.363Z,98221.97
2023-05-23T13:14:38.542Z,98218.81
2023-05-23T13:16:42.026Z,98221.34
2023-05-23T13:18:45.270Z,98221.69
2023-05-23T13:20:49.972Z,98214.16
2023-05-23T13:22:53.034Z,98222.19
2023-05-23T13:24:56.456Z,98225.91
2023-05-23T13:26:59.594Z,98224.09
2023-05-23T13:29:04.229Z,98220.19
2023-05-23T13:31:07.549Z,98216.13
2023-05-23T13:33:12.086Z,98214.97
2023-05-23T13:35:15.488Z,98216.63
2023-05-23T13:37:20.124Z,98212.13
2023-05-23T13:39:23.603Z,98219.34
2023-05-23T13:41:27.555Z,98208.66
2023-05-23T13:43:31.250Z,98212.81
2023-05-23T13:45:34.643Z,98199.63
2023-05-23T13:47:37.882Z,98203.25
2023-05-23T13:49:41.508Z,98214.94
2023-05-23T13:51:45.613Z,98213.78
2023-05-23T13:53:50.417Z,98214.94
2023-05-23T13:55:54.955Z,98220.41
2023-05-23T13:57:58.259Z,98214.47
2023-05-23T14:00:02.763Z,98217.31
2023-05-23T14:02:11.944Z,98217.59
2023-05-23T14:04:15.331Z,98222.88
2023-05-23T14:06:18.934Z,98220.22
2023-05-23T14:08:22.219Z,98211.81
2023-05-23T14:10:27.098Z,98214.94
2023-05-23T14:12:30.685Z,98209.81
2023-05-23T14:14:34.090Z,98210.34
2023-05-23T14:16:37.452Z,98212.50
2023-05-23T14:18:40.659Z,98213.50
2023-05-23T14:20:43.929Z,98209.66
2023-05-23T14:22:47.243Z,98205.81
2023-05-23T14:24:51.093Z,98207.16
2023-05-23T14:26:56.212Z,98208.13
2023-05-23T14:28:59.676Z,98211.19
2023-05-23T14:31:02.812Z,98198.50
2023-05-23T14:33:07.877Z,98203.06
2023-05-23T14:35:13.395Z,98201.69
2023-05-23T14:37:16.499Z,98199.00
2023-05-23T14:39:19.883Z,98201.81
2023-05-23T14:41:23.041Z,98196.66
2023-05-23T14:43:28.695Z,98206.25
2023-05-23T14:47:35.490Z,98210.69
2023-05-23T14:49:38.684Z,98206.63
2023-05-23T14:51:49.748Z,98206.09
2023-05-23T14:53:53.869Z,98205.00
2023-05-23T14:55:57.223Z,98195.91
2023-05-23T14:58:01.076Z,98195.06
2023-05-23T15:00:06.724Z,98198.88
2023-05-23T15:02:09.964Z,98186.22
2023-05-23T15:04:13.195Z,98198.06
2023-05-23T15:06:16.384Z,98194.25
2023-05-23T15:08:19.604Z,98192.81
2023-05-23T15:10:22.790Z,98199.81
2023-05-23T15:12:26.860Z,98202.94
2023-05-23T15:14:32.840Z,98206.91
2023-05-23T15:16:37.496Z,98209.22
2023-05-23T15:18:42.116Z,98205.34
2023-05-23T15:20:45.827Z,98204.06
2023-05-23T15:22:49.063Z,98200.88
2023-05-23T15:24:52.386Z,98207.66
2023-05-23T15:27:02.223Z,98205.69
2023-05-23T15:29:12.509Z,98208.16
2023-05-23T15:31:15.618Z,98200.22
2023-05-23T15:33:20.238Z,98197.09
2023-05-23T15:35:23.864Z,98193.53
2023-05-23T15:37:27.048Z,98194.91
2023-05-23T15:39:30.462Z,98192.19
2023-05-23T15:41:33.577Z,98196.00
2023-05-23T15:43:38.020Z,98200.56
2023-05-23T15:45:42.451Z,98183.81
2023-05-23T15:47:45.704Z,98189.59
2023-05-23T15:49:50.900Z,98186.94
2023-05-23T15:51:55.338Z,98195.09
2023-05-23T15:54:01.360Z,98190.47
2023-05-23T15:56:04.916Z,98195.28
2023-05-23T15:58:09.487Z,98188.66
2023-05-23T16:00:13.936Z,98186.53
2023-05-23T16:02:18.991Z,98182.56
2023-05-23T16:04:23.429Z,98175.75
2023-05-23T16:06:28.287Z,98184.88
2023-05-23T16:08:31.990Z,98183.72
2023-05-23T16:10:35.665Z,98183.38
2023-05-23T16:12:38.898Z,98179.81
2023-05-23T16:14:42.382Z,98184.50
2023-05-23T16:16:45.607Z,98185.50
2023-05-23T16:18:50.088Z,98186.31
2023-05-23T16:20:53.253Z,98177.88
2023-05-23T16:22:57.718Z,98185.19
2023-05-23T16:25:00.931Z,98182.56
2023-05-23T16:27:04.519Z,98180.91
2023-05-23T16:29:08.483Z,98170.97
2023-05-23T16:31:16.728Z,98174.63
2023-05-23T16:33:20.051Z,98168.34
2023-05-23T16:35:23.279Z,98171.84
2023-05-23T16:37:26.355Z,98180.81
2023-05-23T16:39:30.811Z,98176.31
2023-05-23T16:41:33.959Z,98183.78
2023-05-23T16:43:37.089Z,98184.28
2023-05-23T16:45:41.966Z,98178.31
2023-05-23T16:47:45.432Z,98181.09
2023-05-23T16:49:48.672Z,98181.31
2023-05-23T16:51:51.828Z,98177.84
2023-05-23T16:53:54.953Z,98173.50
2023-05-23T16:56:04.410Z,98189.09
2023-05-23T16:58:07.523Z,98187.94
2023-05-23T17:00:11.884Z,98184.66
2023-05-23T17:02:15.867Z,98182.97
2023-05-23T17:04:20.500Z,98188.31
2023-05-23T17:06:23.834Z,98187.31
2023-05-23T17:08:26.990Z,98180.53
2023-05-23T17:10:30.092Z,98183.34
2023-05-23T17:12:34.646Z,98178.19
2023-05-23T17:14:37.739Z,98183.28
2023-05-23T17:16:41.096Z,98180.16
2023-05-23T17:18:44.255Z,98179.47
2023-05-23T17:20:47.482Z,98185.41
2023-05-23T17:22:50.748Z,98181.72
2023-05-23T17:24:53.905Z,98179.22
2023-05-23T17:26:57.093Z,98174.06
2023-05-23T17:29:01.647Z,98174.50
2023-05-23T17:31:04.874Z,98173.97
2023-05-23T17:33:08.098Z,98173.34
2023-05-23T17:35:11.859Z,98177.34
2023-05-23T17:37:15.165Z,98180.91
2023-05-23T17:39:18.212Z,98189.31
2023-05-23T17:41:23.053Z,98190.31
2023-05-23T17:43:26.326Z,98195.78
2023-05-23T17:45:31.523Z,98193.75
2023-05-23T17:47:34.691Z,98197.69
2023-05-23T17:49:38.779Z,98203.75
2023-05-23T17:51:41.904Z,98205.09
2023-05-23T17:53:45.071Z,98202.94
2023-05-23T17:55:48.625Z,98209.84
2023-05-23T17:57:51.866Z,98206.72
2023-05-23T17:59:55.202Z,98221.16
2023-05-23T18:01:59.808Z,98212.91
2023-05-23T18:04:03.093Z,98216.50
2023-05-23T18:06:06.760Z,98216.94
2023-05-23T18:08:09.862Z,98222.94
2023-05-23T18:10:13.181Z,98211.97
2023-05-23T18:12:17.696Z,98227.22
2023-05-23T18:14:21.523Z,98219.94
2023-05-23T18:16:24.587Z,98229.56
2023-05-23T18:18:29.150Z,98231.03
2023-05-23T18:20:32.273Z,98232.13
2023-05-23T18:22:35.384Z,98226.75
2023-05-23T18:24:38.577Z,98233.72
2023-05-23T18:26:43.112Z,98229.03
2023-05-23T18:28:46.262Z,98233.97
2023-05-23T18:30:49.725Z,98228.97
2023-05-23T18:32:52.969Z,98233.28
2023-05-23T18:34:57.620Z,98237.75
2023-05-23T18:37:02.119Z,98235.84
2023-05-23T18:39:05.512Z,98237.16
2023-05-23T18:41:13.213Z,98234.56
2023-05-23T18:43:17.833Z,98233.69
2023-05-23T18:45:21.259Z,98231.63
2023-05-23T18:47:24.563Z,98232.25
2023-05-23T18:49:27.738Z,98238.66
2023-05-23T18:51:32.337Z,98235.34
2023-05-23T18:53:35.691Z,98247.47
2023-05-23T18:55:39.212Z,98255.81
2023-05-23T18:57:42.405Z,98259.72
2023-05-23T18:59:45.564Z,98259.34
2023-05-23T19:01:48.765Z,98264.78
2023-05-23T19:03:52.106Z,98263.84
2023-05-23T19:05:59.575Z,98271.13
2023-05-23T19:08:04.449Z,98266.94
2023-05-23T19:10:08.435Z,98279.63
2023-05-23T19:12:11.694Z,98283.53
2023-05-23T19:14:15.104Z,98292.03
2023-05-23T19:16:20.443Z,98281.25
2023-05-23T19:18:23.706Z,98299.16
2023-05-23T19:20:26.925Z,98295.41
2023-05-23T19:22:38.988Z,98291.72
2023-05-23T19:24:48.073Z,98299.78
2023-05-23T19:26:51.317Z,98310.78
2023-05-23T19:28:54.978Z,98322.19
2023-05-23T19:30:58.114Z,98314.47
2023-05-23T19:33:01.781Z,98316.97
2023-05-23T19:35:05.656Z,98322.66
2023-05-23T19:37:09.446Z,98323.25
2023-05-23T19:39:13.437Z,98323.09
2023-05-23T19:41:20.152Z,98329.75
2023-05-23T19:43:23.421Z,98328.66
2023-05-23T19:45:26.840Z,98337.09
2023-05-23T19:47:31.041Z,98337.00
2023-05-23T19:49:34.378Z,98342.00
2023-05-23T19:51:37.886Z,98341.84
2023-05-23T19:53:41.638Z,98338.63
2023-05-23T19:55:44.786Z,98344.47
2023-05-23T19:57:49.429Z,98350.13
2023-05-23T19:59:52.792Z,98358.19
2023-05-23T20:01:56.053Z,98344.59
2023-05-23T20:03:59.502Z,98353.34
2023-05-23T20:06:02.657Z,98352.75
2023-05-23T20:08:05.856Z,98352.47
2023-05-23T20:10:09.948Z,98356.66
2023-05-23T20:12:13.072Z,98365.25
2023-05-23T20:14:17.644Z,98371.63
2023-05-23T20:16:20.859Z,98368.88
2023-05-23T20:18:24.122Z,98369.16
2023-05-23T20:20:27.325Z,98370.56
2023-05-23T20:22:30.501Z,98384.84
2023-05-23T20:24:33.837Z,98383.88
2023-05-23T20:26:37.285Z,98385.25
2023-05-23T20:28:41.148Z,98391.06
2023-05-23T20:30:45.989Z,98384.97
2023-05-23T20:32:53.085Z,98380.84
2023-05-23T20:34:56.309Z,98385.88
2023-05-23T20:36:59.652Z,98386.00
2023-05-23T20:39:02.759Z,98390.84
2023-05-23T20:41:07.423Z,98393.50
2023-05-23T20:43:10.630Z,98393.50
2023-05-23T20:45:13.862Z,98384.50
2023-05-23T20:47:18.825Z,98383.66
2023-05-23T20:49:22.477Z,98386.56
2023-05-23T20:51:25.799Z,98389.78
2023-05-23T20:53:29.841Z,98387.28
2023-05-23T20:55:35.380Z,98391.47
2023-05-23T20:57:38.510Z,98395.59
2023-05-23T20:59:41.836Z,98405.47
2023-05-23T21:01:45.070Z,98406.44
2023-05-23T21:03:49.628Z,98399.38
2023-05-23T21:05:52.774Z,98406.16
2023-05-23T21:07:55.833Z,98410.34
2023-05-23T21:10:02.119Z,98407.84
2023-05-23T21:12:05.873Z,98410.75
2023-05-23T21:14:08.900Z,98411.03
2023-05-23T21:16:14.741Z,98414.94
2023-05-23T21:18:18.029Z,98414.91
2023-05-23T21:20:22.573Z,98418.13
2023-05-23T21:22:25.677Z,98408.97
2023-05-23T21:24:29.632Z,98422.84
2023-05-23T21:26:32.872Z,98419.09
2023-05-23T21:28:36.061Z,98424.50
2023-05-23T21:30:40.408Z,98417.84
2023-05-23T21:32:44.797Z,98420.19
2023-05-23T21:34:48.159Z,98417.16
2023-05-23T21:36:52.717Z,98419.25
2023-05-23T21:38:55.867Z,98408.25
2023-05-23T21:40:59.089Z,98411.00
2023-05-23T21:43:02.210Z,98413.31
2023-05-23T21:45:06.118Z,98408.84
2023-05-23T21:47:09.363Z,98417.81
2023-05-23T21:49:12.491Z,98415.16
2023-05-23T21:51:15.583Z,98412.91
2023-05-23T21:53:20.145Z,98429.94
2023-05-23T21:55:23.222Z,98423.56
2023-05-23T21:57:26.303Z,98421.63
2023-05-23T21:59:29.417Z,98422.44
2023-05-23T22:01:33.057Z,98430.47
2023-05-23T22:03:36.662Z,98427.56
2023-05-23T22:05:40.008Z,98426.75
2023-05-23T22:07:43.106Z,98437.91
2023-05-23T22:09:47.513Z,98440.31
2023-05-23T22:11:50.662Z,98440.13
2023-05-23T22:13:53.730Z,98435.88
2023-05-23T22:15:56.848Z,98437.66
2023-05-23T22:18:00.103Z,98432.47
2023-05-23T22:20:05.208Z,98428.03
2023-05-23T22:22:09.871Z,98428.47
2023-05-23T22:24:13.083Z,98430.97
2023-05-23T22:26:17.705Z,98430.25
2023-05-23T22:28:20.792Z,98429.66
2023-05-23T22:30:24.038Z,98432.56
2023-05-23T22:32:27.218Z,98429.78
2023-05-23T22:34:31.006Z,98438.13
2023-05-23T22:36:34.236Z,98438.47
2023-05-23T22:38:37.512Z,98440.84
2023-05-23T22:40:40.756Z,98438.22
2023-05-23T22:42:45.360Z,98443.22
2023-05-23T22:44:48.553Z,98442.97
2023-05-23T22:46:52.121Z,98441.16
2023-05-23T22:48:56.161Z,98448.28
2023-05-23T22:50:59.607Z,98448.59
2023-05-23T22:53:03.490Z,98454.31
2023-05-23T22:55:08.257Z,98458.88
2023-05-23T22:57:11.417Z,98451.53
2023-05-23T22:59:16.082Z,98458.09
2023-05-23T23:01:19.278Z,98453.09
2023-05-23T23:03:22.643Z,98446.69
2023-05-23T23:05:25.976Z,98437.25
2023-05-23T23:07:29.038Z,98441.16
2023-05-23T23:09:32.106Z,98444.31
2023-05-23T23:11:35.244Z,98445.53
2023-05-23T23:13:38.332Z,98444.13
2023-05-23T23:15:44.015Z,98441.34
2023-05-23T23:17:47.098Z,98441.75
2023-05-23T23:19:51.597Z,98441.03
2023-05-23T23:21:54.718Z,98436.59
2023-05-23T23:23:58.445Z,98433.34
2023-05-23T23:26:01.532Z,98436.88
2023-05-23T23:28:04.905Z,98436.34
2023-05-23T23:30:09.233Z,98438.13
2023-05-23T23:32:13.729Z,98426.53
2023-05-23T23:34:16.951Z,98425.31
2023-05-23T23:36:20.052Z,98431.00
2023-05-23T23:38:23.118Z,98430.31
2023-05-23T23:40:26.449Z,98425.88
2023-05-23T23:42:29.554Z,98423.06
2023-05-23T23:44:32.624Z,98423.75
2023-05-23T23:46:35.715Z,98423.19
2023-05-23T23:48:40.193Z,98423.91
2023-05-23T23:50:43.408Z,98426.25
2023-05-23T23:52:46.701Z,98421.00
2023-05-23T23:54:49.768Z,98431.13
2023-05-23T23:56:52.831Z,98430.31
2023-05-23T23:58:55.907Z,98435.44
